createdAt,value
2018-11-23T00:04:33.512Z,32.53
2018-11-23T00:09:37.016Z,36.17
2018-11-23T00:14:41.261Z,35.97
2018-11-23T00:19:47.117Z,36.70
2018-11-23T00:24:50.488Z,32.78
2018-11-23T00:29:53.804Z,38.60
2018-11-23T00:34:57.168Z,37.80
2018-11-23T00:40:00.501Z,40.23
2018-11-23T00:45:04.971Z,35.25
2018-11-23T00:50:10.700Z,34.93
2018-11-23T00:55:15.416Z,33.30
2018-11-23T01:00:35.216Z,34.08
2018-11-23T01:05:38.659Z,39.83
2018-11-23T01:10:41.996Z,33.67
2018-11-23T01:15:45.487Z,37.53
2018-11-23T01:20:48.832Z,34.05
2018-11-23T01:25:52.145Z,38.90
2018-11-23T01:30:55.485Z,35.20
2018-11-23T01:35:58.810Z,38.07
2018-11-23T01:41:02.163Z,37.80
2018-11-23T01:46:05.578Z,42.90
2018-11-23T01:51:09.061Z,37.23
2018-11-23T01:56:12.504Z,35.93
2018-11-23T02:01:16.798Z,31.07
2018-11-23T02:06:26.551Z,41.03
2018-11-23T02:11:29.989Z,33.10
2018-11-23T02:16:33.415Z,32.98
2018-11-23T02:21:55.239Z,33.63
2018-11-23T02:27:03.772Z,34.23
2018-11-23T02:32:09.393Z,34.37
2018-11-23T02:37:13.323Z,41.55
2018-11-23T02:42:17.417Z,31.50
2018-11-23T02:47:35.154Z,37.40
2018-11-23T02:52:39.509Z,38.93
2018-11-23T02:57:43.320Z,44.93
2018-11-23T03:02:46.693Z,38.65
2018-11-23T03:07:52.046Z,37.83
2018-11-23T03:12:56.279Z,33.90
2018-11-23T03:17:59.677Z,35.83
2018-11-23T03:23:03.033Z,33.18
2018-11-23T03:28:06.455Z,33.87
2018-11-23T03:33:09.799Z,36.90
2018-11-23T03:38:13.218Z,37.23
2018-11-23T03:43:16.637Z,38.67
2018-11-23T03:48:26.811Z,43.52
2018-11-23T03:53:30.156Z,35.30
2018-11-23T03:58:33.703Z,38.50
2018-11-23T04:03:37.114Z,39.15
2018-11-23T04:08:40.757Z,41.23
2018-11-23T04:13:45.181Z,39.33
2018-11-23T04:18:48.642Z,41.08
2018-11-23T04:23:51.984Z,33.58
2018-11-23T04:28:55.841Z,37.10
2018-11-23T04:33:59.280Z,38.25
2018-11-23T04:39:02.684Z,37.30
2018-11-23T04:44:06.626Z,43.15
2018-11-23T04:54:47.125Z,40.38
2018-11-23T04:59:50.660Z,38.00
2018-11-23T05:04:53.992Z,38.00
2018-11-23T05:10:00.404Z,38.30
2018-11-23T05:15:04.743Z,36.42
2018-11-23T05:20:09.443Z,39.00
2018-11-23T05:25:15.814Z,36.43
2018-11-23T05:30:24.658Z,37.15
2018-11-23T05:37:37.973Z,44.20
2018-11-23T05:43:04.499Z,47.57
2018-11-23T05:48:05.566Z,41.77
2018-11-23T05:53:09.527Z,42.27
2018-11-23T06:03:15.964Z,40.43
2018-11-23T06:08:21.053Z,38.30
2018-11-23T06:13:24.809Z,39.40
2018-11-23T06:18:28.502Z,38.53
2018-11-23T06:23:32.172Z,43.60
2018-11-23T06:28:35.815Z,40.08
2018-11-23T06:33:42.820Z,37.40
2018-11-23T06:38:46.647Z,39.60
2018-11-23T06:43:50.408Z,36.35
2018-11-23T06:48:54.447Z,36.45
2018-11-23T06:53:58.308Z,32.03
2018-11-23T06:59:01.922Z,32.17
2018-11-23T07:04:05.473Z,36.25
2018-11-23T07:09:09.392Z,34.37
2018-11-23T07:14:12.871Z,37.15
2018-11-23T07:19:16.458Z,35.38
2018-11-23T07:24:19.928Z,37.25
2018-11-23T07:29:23.566Z,33.98
2018-11-23T07:34:27.094Z,36.03
2018-11-23T07:39:41.717Z,34.40
2018-11-23T07:44:45.628Z,36.42
2018-11-23T07:49:49.356Z,39.73
2018-11-23T07:54:52.861Z,46.28
2018-11-23T07:59:56.574Z,50.60
2018-11-23T08:04:59.955Z,49.45
2018-11-23T08:10:02.538Z,41.33
2018-11-23T08:15:13.863Z,46.28
2018-11-23T08:20:18.697Z,43.02
2018-11-23T08:25:23.149Z,44.73
2018-11-23T08:30:27.995Z,41.42
2018-11-23T08:35:31.378Z,41.25
2018-11-23T08:40:34.785Z,40.52
2018-11-23T08:45:38.105Z,38.88
2018-11-23T08:50:41.489Z,41.00
2018-11-23T08:55:44.844Z,39.58
2018-11-23T09:01:00.099Z,37.67
2018-11-23T09:06:26.919Z,35.85
2018-11-23T09:11:30.383Z,35.25
2018-11-23T09:17:41.337Z,34.53
2018-11-23T09:22:54.047Z,36.50
2018-11-23T09:28:06.173Z,35.55
2018-11-23T09:38:37.713Z,30.27
2018-11-23T09:48:55.101Z,30.32
2018-11-23T09:53:58.551Z,29.67
2018-11-23T09:59:02.044Z,29.10
2018-11-23T10:04:05.506Z,30.40
2018-11-23T10:09:09.045Z,26.27
2018-11-23T10:14:12.526Z,25.77
2018-11-23T10:19:24.545Z,25.60
2018-11-23T10:24:43.706Z,27.85
2018-11-23T10:29:51.854Z,26.60
2018-11-23T10:34:52.127Z,27.60
2018-11-23T10:39:55.547Z,26.93
2018-11-23T10:44:58.889Z,25.10
2018-11-23T10:50:02.249Z,24.23
2018-11-23T10:55:12.181Z,24.40
2018-11-23T11:00:21.690Z,26.20
2018-11-23T11:05:35.352Z,24.27
2018-11-23T11:10:38.785Z,20.95
2018-11-23T11:15:52.112Z,21.05
2018-11-23T11:20:55.544Z,22.85
2018-11-23T11:26:12.908Z,23.15
2018-11-23T11:31:16.449Z,23.30
2018-11-23T11:36:21.003Z,21.40
2018-11-23T11:41:27.658Z,22.22
2018-11-23T11:51:33.222Z,21.62
2018-11-23T11:56:36.566Z,21.52
2018-11-23T12:01:39.902Z,19.60
2018-11-23T12:06:43.349Z,21.80
2018-11-23T12:11:46.924Z,20.27
2018-11-23T12:16:50.265Z,20.88
2018-11-23T12:21:53.794Z,21.12
2018-11-23T12:26:57.554Z,20.23
2018-11-23T12:32:02.767Z,20.08
2018-11-23T12:37:06.527Z,19.25
2018-11-23T12:42:10.003Z,22.83
2018-11-23T12:47:13.352Z,20.47
2018-11-23T12:52:16.900Z,19.47
2018-11-23T12:57:20.330Z,20.45
2018-11-23T13:02:23.803Z,18.55
2018-11-23T13:07:27.222Z,19.10
2018-11-23T13:12:30.891Z,18.40
2018-11-23T13:17:34.305Z,20.57
2018-11-23T13:22:37.883Z,21.37
2018-11-23T13:28:01.147Z,23.42
2018-11-23T13:33:04.634Z,21.73
2018-11-23T13:38:22.096Z,22.32
2018-11-23T13:43:25.492Z,21.53
2018-11-23T13:48:28.913Z,21.63
2018-11-23T13:53:33.642Z,24.57
2018-11-23T13:58:37.052Z,25.82
2018-11-23T14:03:41.249Z,24.18
2018-11-23T14:08:44.753Z,23.85
2018-11-23T14:13:48.282Z,24.20
2018-11-23T14:18:53.214Z,26.07
2018-11-23T14:23:57.615Z,24.30
2018-11-23T14:34:08.137Z,27.10
2018-11-23T14:39:11.528Z,27.13
2018-11-23T14:44:15.581Z,28.65
2018-11-23T14:49:19.882Z,28.17
2018-11-23T14:54:23.310Z,29.50
2018-11-23T14:59:27.082Z,25.08
2018-11-23T15:04:32.663Z,25.48
2018-11-23T15:09:36.016Z,30.72
2018-11-23T15:14:39.327Z,24.10
2018-11-23T15:19:42.639Z,25.27
2018-11-23T15:24:46.051Z,27.48
2018-11-23T15:29:51.228Z,28.00
2018-11-23T15:34:55.239Z,27.62
2018-11-23T15:39:58.796Z,28.73
2018-11-23T15:45:02.825Z,29.80
2018-11-23T15:50:08.383Z,31.27
2018-11-23T15:55:15.550Z,28.57
2018-11-23T16:00:22.497Z,30.70
2018-11-23T16:05:28.900Z,30.20
2018-11-23T16:10:36.328Z,30.90
2018-11-23T16:15:39.788Z,28.70
2018-11-23T16:25:51.540Z,29.95
2018-11-23T16:31:00.654Z,28.40
2018-11-23T16:36:04.140Z,29.20
2018-11-23T16:41:08.173Z,29.55
2018-11-23T16:46:11.601Z,27.87
2018-11-23T16:51:15.193Z,29.77
2018-11-23T16:56:19.537Z,28.80
2018-11-23T17:01:22.958Z,27.13
2018-11-23T17:06:26.275Z,28.98
2018-11-23T17:11:29.647Z,28.97
2018-11-23T17:16:33.083Z,24.02
2018-11-23T17:21:36.436Z,25.97
2018-11-23T17:26:44.001Z,25.62
2018-11-23T17:31:49.386Z,26.50
2018-11-23T17:36:52.846Z,28.27
2018-11-23T17:41:56.406Z,24.23
2018-11-23T17:46:59.991Z,25.77
2018-11-23T17:52:03.616Z,25.08
2018-11-23T17:57:06.926Z,24.98
2018-11-23T18:02:11.103Z,23.37
2018-11-23T18:07:14.822Z,25.60
2018-11-23T18:12:18.134Z,30.15
2018-11-23T18:17:25.241Z,27.00
2018-11-23T18:22:29.189Z,25.62
2018-11-23T18:27:33.630Z,25.30
2018-11-23T18:32:35.968Z,26.65
2018-11-23T18:37:57.015Z,24.60
2018-11-23T18:43:00.491Z,23.57
2018-11-23T18:48:04.000Z,26.90
2018-11-23T18:53:07.366Z,28.95
2018-11-23T18:58:10.826Z,25.35
2018-11-23T19:03:14.228Z,29.70
2018-11-23T19:08:17.542Z,35.95
2018-11-23T19:13:21.025Z,33.98
2018-11-23T19:18:24.349Z,33.80
2018-11-23T19:23:27.774Z,34.07
2018-11-23T19:28:31.251Z,36.73
2018-11-23T19:33:34.616Z,36.35
2018-11-23T19:38:37.970Z,35.08
2018-11-23T19:43:41.297Z,40.33
2018-11-23T19:48:44.699Z,38.20
2018-11-23T19:53:48.085Z,35.35
2018-11-23T19:58:51.559Z,36.35
2018-11-23T20:03:54.941Z,38.35
2018-11-23T20:08:58.389Z,38.00
2018-11-23T20:14:01.786Z,37.53
2018-11-23T20:19:05.169Z,37.25
2018-11-23T20:24:08.594Z,38.20
2018-11-23T20:29:11.918Z,38.00
2018-11-23T20:34:15.341Z,36.10
2018-11-23T20:39:18.755Z,36.45
2018-11-23T20:44:24.070Z,38.20
2018-11-23T20:49:28.201Z,35.60
2018-11-23T20:54:39.570Z,35.70
2018-11-23T20:59:45.933Z,33.30
2018-11-23T21:04:49.520Z,32.57
2018-11-23T21:09:53.836Z,31.48
2018-11-23T21:15:00.190Z,32.00
2018-11-23T21:20:05.393Z,31.15
2018-11-23T21:25:20.370Z,30.52
2018-11-23T21:47:10.554Z,29.43
2018-11-23T21:52:14.835Z,27.27
2018-11-23T21:57:19.734Z,27.87
2018-11-23T22:02:23.422Z,24.85
2018-11-23T22:07:45.127Z,27.50
2018-11-23T22:12:49.424Z,26.02
2018-11-23T22:17:55.535Z,24.57
2018-11-23T22:23:05.286Z,25.40
2018-11-23T22:28:17.303Z,28.67
2018-11-23T22:33:27.430Z,26.55
2018-11-23T22:38:33.181Z,27.02
2018-11-23T22:43:40.504Z,22.58
2018-11-23T22:48:46.879Z,27.27
2018-11-23T22:53:51.064Z,24.98
2018-11-23T22:58:57.799Z,27.58
2018-11-23T23:04:03.025Z,27.67
2018-11-23T23:09:12.462Z,26.27
2018-11-23T23:14:20.957Z,26.55
2018-11-23T23:19:31.388Z,29.72
2018-11-23T23:24:39.689Z,30.73
2018-11-23T23:29:44.567Z,32.00
2018-11-23T23:45:44.201Z,28.50
2018-11-23T23:50:47.667Z,33.05
2018-11-23T23:55:53.288Z,27.60
